Terminal Aerodrome Forecast
Issued by NWS

Home | Current Version | Previous Version | Text Only | Print | Product List | Glossary On
Versions: 1 2 3 4 5 6 7 8 9 10 11 12 13 14 15 16 17
950
FTUS41 KCAR 252320
TAFBHB
TAF
KBHB 252320Z 2600/2624 10009KT P6SM VCSH SCT020 OVC060
      TEMPO 2600/2602 -SHRA OVC030
     FM260200 08014G22KT 5SM -RA OVC015
     FM260900 05015G24KT 3SM -RA BR OVC005
     FM261200 05010KT 2SM RA BR OVC004
     FM261700 02012KT P6SM OVC008=

USA.gov is the U.S. government's official web portal to all federal, state and local government web resources and services.